Ash Shaykh Uthman, Yemen
Current Conditions -  °F | °C
As of 1:00 PM on Saturday 25 Oct 2014 (Local Time) from OYAA Reporting Station
Clear Clear  
Wind Chill: 37°   Ceiling: Unl
Heat Index: 37°   Visibility: 6mi
Dew Point: -22°   Wind: 15mph
Humidity: 2%   Direction: 170°S
Pressure: 29.8"   Gusts: NA
Location:  12.87°N, 44.98°E
Report Text: OYAA 251000Z 17013KT CAVOK 37/M22 Q1009
Loading
Personal Weather Stations






























Interactive Weather Map
Tropical Storm Tracking
New forecast layout! Learn more

10-Day Weather Forecast

Advertisements
Track Severe Weather on mobile